Time;durP1;ratioP1;P1;durP2;ratioP2;P2;SDS_P1;SDS_P2;PMS_P1;PMS_P2;Temp;Humidity;BMP_temperature;BMP_pressure;BME280_temperature;BME280_humidity;BME280_pressure;Samples;Min_cycle;Max_cycle;Signal;HPM_P1;HPM_P2
2021/10/23 00:04:16;;;;;;;26.25;8.93;;;;;;;6.74;100.00;102344.91;10629906;27;20070;-59
2021/10/23 00:09:18;;;;;;;19.35;10.15;;;;;;;6.74;100.00;102347.50;10611047;27;20043;-61
2021/10/23 00:14:21;;;;;;;15.80;7.80;;;;;;;6.54;100.00;102350.44;10629660;27;20043;-59
2021/10/23 00:19:23;;;;;;;15.90;8.23;;;;;;;6.64;100.00;102356.31;10629363;27;20070;-59
2021/10/23 00:24:25;;;;;;;24.40;9.07;;;;;;;6.63;100.00;102370.25;10629462;27;20051;-59
2021/10/23 00:29:28;;;;;;;14.52;7.18;;;;;;;6.67;100.00;102362.38;10628883;27;20055;-60
2021/10/23 00:34:30;;;;;;;15.02;7.10;;;;;;;6.68;100.00;102371.03;10628370;27;20051;-60
2021/10/23 00:39:32;;;;;;;25.10;10.55;;;;;;;6.75;100.00;102371.78;10628266;27;20055;-60
2021/10/23 00:44:37;;;;;;;19.88;9.48;;;;;;;6.64;100.00;102379.75;10628627;27;20407;-59
2021/10/23 00:49:40;;;;;;;14.20;8.30;;;;;;;6.63;100.00;102378.91;10628631;27;20054;-59
2021/10/23 00:54:43;;;;;;;26.67;10.80;;;;;;;6.63;100.00;102373.69;10627888;27;20406;-61
2021/10/23 00:59:46;;;;;;;24.20;9.15;;;;;;;6.67;100.00;102374.50;10627487;27;20093;-59
2021/10/23 01:04:48;;;;;;;18.65;7.60;;;;;;;6.76;100.00;102369.16;10627635;27;20058;-60
2021/10/23 01:09:51;;;;;;;21.23;8.35;;;;;;;6.61;100.00;102379.81;10627496;27;20039;-60
2021/10/23 01:14:53;;;;;;;24.42;9.57;;;;;;;6.79;100.00;102370.84;10627104;27;20054;-61
2021/10/23 01:19:57;;;;;;;24.77;9.05;;;;;;;6.64;100.00;102370.22;10625688;27;20050;-61
2021/10/23 01:24:59;;;;;;;16.75;6.93;;;;;;;6.62;100.00;102360.69;10626919;27;20058;-60
2021/10/23 01:30:02;;;;;;;18.10;9.00;;;;;;;6.64;100.00;102352.00;10626484;27;20043;-59
2021/10/23 01:35:06;;;;;;;21.30;10.60;;;;;;;6.12;100.00;102342.38;10627320;27;20043;-59
2021/10/23 01:40:18;;;;;;;17.65;8.43;;;;;;;6.49;100.00;102365.25;10625917;27;20062;-60
2021/10/23 01:45:20;;;;;;;16.50;7.53;;;;;;;6.51;100.00;102361.72;10625732;27;20047;-59
2021/10/23 01:50:24;;;;;;;15.18;7.97;;;;;;;6.42;100.00;102359.28;10625312;27;20487;-59
2021/10/23 01:55:26;;;;;;;15.23;6.88;;;;;;;6.52;100.00;102349.56;10625373;27;20055;-59
2021/10/23 02:00:29;;;;;;;9.65;6.38;;;;;;;6.51;100.00;102345.28;10625126;27;20490;-60
2021/10/23 02:05:31;;;;;;;11.70;6.22;;;;;;;6.43;100.00;102361.00;10625196;27;20043;-59
2021/10/23 02:10:34;;;;;;;15.45;7.05;;;;;;;6.41;100.00;102359.31;10625418;27;20050;-60
2021/10/23 02:15:36;;;;;;;11.63;6.60;;;;;;;6.39;100.00;102364.53;10625029;27;20054;-59
2021/10/23 02:20:38;;;;;;;16.77;7.50;;;;;;;6.35;100.00;102375.00;10625018;27;20043;-59
2021/10/23 02:25:41;;;;;;;15.38;6.80;;;;;;;6.51;100.00;102371.28;10624747;27;20051;-59
2021/10/23 02:30:43;;;;;;;12.77;7.30;;;;;;;6.19;100.00;102363.97;10605974;27;20043;-59
2021/10/23 02:35:45;;;;;;;15.57;5.65;;;;;;;6.22;100.00;102374.31;10624485;28;20066;-59
2021/10/23 02:40:48;;;;;;;14.63;8.32;;;;;;;6.40;100.00;102386.19;10624169;28;20387;-60
2021/10/23 02:45:52;;;;;;;15.88;7.57;;;;;;;6.15;100.00;102391.72;10624844;28;20043;-59
2021/10/23 02:50:54;;;;;;;11.02;5.45;;;;;;;6.13;100.00;102393.50;10623527;28;20521;-59
2021/10/23 02:55:57;;;;;;;19.52;7.50;;;;;;;6.22;100.00;102400.31;10624108;28;20047;-59
2021/10/23 03:00:59;;;;;;;21.65;9.23;;;;;;;6.39;100.00;102393.16;10623829;28;20043;-59
2021/10/23 03:06:02;;;;;;;15.80;7.47;;;;;;;6.09;100.00;102390.06;10623867;28;20043;-59
2021/10/23 03:11:05;;;;;;;14.50;7.97;;;;;;;5.99;100.00;102387.63;10624071;28;20040;-59
2021/10/23 03:16:08;;;;;;;15.57;8.10;;;;;;;5.97;100.00;102381.56;10623587;28;20398;-59
2021/10/23 03:21:11;;;;;;;34.47;11.43;;;;;;;6.00;100.00;102397.13;10623476;28;20055;-59
2021/10/23 03:26:13;;;;;;;20.00;11.25;;;;;;;5.89;100.00;102412.84;10623361;28;20047;-59
2021/10/23 03:31:16;;;;;;;24.17;13.38;;;;;;;5.66;100.00;102420.91;10622930;28;20453;-59
2021/10/23 03:36:18;;;;;;;18.83;10.60;;;;;;;6.11;100.00;102411.72;10623594;28;20073;-59
2021/10/23 03:41:21;;;;;;;22.05;14.07;;;;;;;6.16;100.00;102418.63;10625288;27;20498;-59
2021/10/23 03:46:23;;;;;;;15.45;11.05;;;;;;;6.31;100.00;102436.63;10630589;27;20411;-60
2021/10/23 03:51:25;;;;;;;19.20;11.73;;;;;;;6.52;100.00;102430.25;10630338;27;20054;-59
2021/10/23 03:56:28;;;;;;;33.08;16.35;;;;;;;6.33;100.00;102433.09;10630423;27;20048;-60
2021/10/23 04:01:30;;;;;;;28.17;17.27;;;;;;;6.22;100.00;102440.22;10630125;27;20051;-59
2021/10/23 04:06:33;;;;;;;27.35;16.70;;;;;;;6.09;100.00;102430.84;10629608;27;20067;-59
2021/10/23 04:11:35;;;;;;;26.90;15.77;;;;;;;6.30;100.00;102427.97;10629410;27;20062;-59
2021/10/23 04:16:38;;;;;;;17.33;11.98;;;;;;;6.53;100.00;102431.13;10629722;27;20051;-59
2021/10/23 04:21:42;;;;;;;23.13;16.50;;;;;;;6.46;100.00;102428.59;10629853;27;20055;-59
2021/10/23 04:26:44;;;;;;;35.53;23.35;;;;;;;6.35;100.00;102424.41;10629113;27;20043;-60
2021/10/23 04:31:47;;;;;;;33.70;20.48;;;;;;;6.29;100.00;102434.03;10628812;27;20050;-59
2021/10/23 04:36:49;;;;;;;25.52;16.77;;;;;;;6.29;100.00;102436.63;10628870;27;20050;-60
2021/10/23 04:41:52;;;;;;;26.58;17.00;;;;;;;6.35;100.00;102434.84;10628333;27;20059;-59
2021/10/23 04:46:54;;;;;;;35.40;20.60;;;;;;;6.30;100.00;102442.69;10628692;27;20121;-60
2021/10/23 04:51:56;;;;;;;34.35;24.75;;;;;;;6.40;100.00;102439.06;10627929;27;20047;-59
2021/10/23 04:56:59;;;;;;;29.25;19.02;;;;;;;6.37;100.00;102440.88;10627993;27;20043;-60
2021/10/23 05:02:01;;;;;;;36.63;22.98;;;;;;;6.15;100.00;102433.34;10627694;27;20055;-59
2021/10/23 05:07:03;;;;;;;33.88;20.90;;;;;;;6.13;100.00;102441.16;10628296;27;20130;-59
2021/10/23 05:12:06;;;;;;;33.75;22.60;;;;;;;6.10;100.00;102445.53;10627111;27;20040;-59
2021/10/23 05:17:08;;;;;;;33.33;17.52;;;;;;;6.25;100.00;102454.91;10627092;27;20043;-60
2021/10/23 05:22:10;;;;;;;39.53;27.73;;;;;;;5.95;100.00;102455.22;10626561;27;20509;-60
2021/10/23 05:27:13;;;;;;;32.92;20.67;;;;;;;5.90;100.00;102462.22;10626625;27;20495;-59
2021/10/23 05:32:15;;;;;;;35.67;24.63;;;;;;;5.89;100.00;102462.22;10625965;27;20050;-59
2021/10/23 05:37:18;;;;;;;53.25;31.63;;;;;;;5.74;100.00;102478.84;10626322;27;20054;-59
2021/10/23 05:42:20;;;;;;;32.67;21.67;;;;;;;5.73;100.00;102475.41;10625717;27;20047;-60
2021/10/23 05:47:22;;;;;;;44.58;28.42;;;;;;;5.84;100.00;102483.06;10607799;27;20047;-58
2021/10/23 05:52:25;;;;;;;38.00;26.80;;;;;;;5.54;100.00;102479.03;10625622;27;20051;-59
2021/10/23 05:57:27;;;;;;;48.17;29.02;;;;;;;5.69;100.00;102483.25;10625811;27;20043;-59
2021/10/23 06:02:32;;;;;;;29.65;21.65;;;;;;;5.91;100.00;102486.47;10625680;27;20047;-59
2021/10/23 06:07:39;;;;;;;40.78;27.98;;;;;;;5.54;100.00;102492.03;10607106;27;20049;-59
2021/10/23 06:12:42;;;;;;;28.50;21.52;;;;;;;5.84;100.00;102505.63;10625231;27;20043;-58
2021/10/23 06:17:44;;;;;;;35.80;25.13;;;;;;;5.62;100.00;102513.63;10624976;27;20474;-59
2021/10/23 06:22:51;;;;;;;33.88;24.15;;;;;;;5.59;100.00;102519.69;10624650;27;20053;-59
2021/10/23 06:27:53;;;;;;;44.78;30.83;;;;;;;5.51;100.00;102525.84;10624623;27;20501;-59
2021/10/23 06:32:57;;;;;;;44.38;30.45;;;;;;;5.47;100.00;102529.34;10624407;27;20043;-59
2021/10/23 06:37:59;;;;;;;36.53;27.80;;;;;;;5.71;100.00;102530.84;10624103;28;20406;-59
2021/10/23 06:43:02;;;;;;;29.85;24.98;;;;;;;5.83;100.00;102532.47;10624171;28;20055;-59
2021/10/23 06:48:06;;;;;;;40.33;26.30;;;;;;;5.87;100.00;102540.25;10624090;28;20469;-59
2021/10/23 06:53:09;;;;;;;38.55;26.80;;;;;;;6.04;100.00;102560.91;10605780;28;20043;-60
2021/10/23 06:58:11;;;;;;;34.90;25.63;;;;;;;6.21;100.00;102565.91;10623659;28;20414;-58
2021/10/23 07:03:16;;;;;;;36.30;21.17;;;;;;;6.75;100.00;102572.25;10623620;28;20050;-60
2021/10/23 07:08:19;;;;;;;35.13;24.20;;;;;;;6.96;100.00;102584.09;10624132;28;20069;-59
2021/10/23 07:13:21;;;;;;;40.60;24.63;;;;;;;7.37;100.00;102587.84;10623825;28;20054;-61
2021/10/23 07:18:24;;;;;;;33.65;24.08;;;;;;;7.65;100.00;102598.72;10629388;27;20044;-60
2021/10/23 07:23:26;;;;;;;26.45;17.50;;;;;;;7.92;100.00;102601.75;10631476;27;20488;-59
2021/10/23 07:28:28;;;;;;;23.60;17.67;;;;;;;7.86;100.00;102613.13;10631584;27;20043;-58
2021/10/23 07:33:30;;;;;;;28.13;19.42;;;;;;;7.85;100.00;102619.25;10631608;27;20070;-59
2021/10/23 07:38:38;;;;;;;21.55;15.45;;;;;;;7.95;100.00;102619.94;10631217;27;20061;-58
2021/10/23 07:43:41;;;;;;;24.55;15.63;;;;;;;8.04;100.00;102621.53;10630954;27;20057;-59
2021/10/23 07:48:43;;;;;;;18.58;13.55;;;;;;;8.06;100.00;102638.03;10630607;27;20046;-60
2021/10/23 07:53:47;;;;;;;22.35;13.75;;;;;;;8.26;100.00;102645.50;10630439;27;20438;-60
2021/10/23 07:58:49;;;;;;;13.82;9.98;;;;;;;8.33;100.00;102645.34;10630172;27;20043;-59
2021/10/23 08:03:52;;;;;;;26.73;14.82;;;;;;;8.44;100.00;102645.19;10629891;27;20524;-60
2021/10/23 08:08:54;;;;;;;19.15;14.38;;;;;;;8.73;100.00;102654.19;10629794;27;20050;-59
2021/10/23 08:13:56;;;;;;;20.08;12.15;;;;;;;9.01;100.00;102667.56;10629572;27;20401;-60
2021/10/23 08:18:59;;;;;;;30.75;14.38;;;;;;;9.01;100.00;102661.47;10629341;27;20047;-60
2021/10/23 08:24:01;;;;;;;18.80;13.38;;;;;;;8.99;100.00;102666.72;10629255;27;20510;-59
2021/10/23 08:29:03;;;;;;;17.33;10.82;;;;;;;9.36;100.00;102675.53;10628609;27;20043;-60
2021/10/23 08:34:06;;;;;;;14.82;11.32;;;;;;;9.43;100.00;102682.31;10628768;27;20039;-60
2021/10/23 08:39:09;;;;;;;19.35;12.43;;;;;;;9.44;100.00;102687.53;10628392;27;20062;-61
2021/10/23 08:44:14;;;;;;;26.63;19.15;;;;;;;9.23;100.00;102681.03;10628995;27;20054;-60
2021/10/23 08:49:16;;;;;;;21.10;13.57;;;;;;;9.34;100.00;102693.00;10628055;27;20047;-60
2021/10/23 08:54:19;;;;;;;20.60;15.82;;;;;;;8.96;100.00;102695.53;10610262;27;20047;-60
2021/10/23 08:59:21;;;;;;;25.85;14.50;;;;;;;9.55;100.00;102710.84;10608286;27;20054;-60
2021/10/23 09:04:28;;;;;;;20.75;14.45;;;;;;;9.74;100.00;102707.78;10626729;27;20058;-60
2021/10/23 09:09:43;;;;;;;22.75;17.23;;;;;;;9.83;100.00;102713.69;10609802;27;20039;-59
2021/10/23 09:15:05;;;;;;;30.20;21.38;;;;;;;9.41;100.00;102712.88;10627191;27;20047;-60
2021/10/23 09:20:12;;;;;;;24.50;16.98;;;;;;;9.47;100.00;102715.38;10626996;27;20488;-60
2021/10/23 09:25:30;;;;;;;23.55;17.13;;;;;;;9.71;100.00;102720.94;10626785;27;20054;-61
2021/10/23 09:30:39;;;;;;;19.73;16.10;;;;;;;9.55;100.00;102707.34;10627085;27;20047;-60
2021/10/23 09:35:47;;;;;;;25.83;17.98;;;;;;;9.37;100.00;102706.00;10626346;27;20483;-60
2021/10/23 09:41:09;;;;;;;25.17;16.15;;;;;;;9.58;100.00;102715.13;10607037;27;20080;-59
2021/10/23 09:46:12;;;;;;;30.17;19.92;;;;;;;9.95;100.00;102712.53;10625831;27;20061;-61
2021/10/23 09:51:29;;;;;;;21.30;17.55;;;;;;;9.86;100.00;102723.19;10625992;27;20039;-60
2021/10/23 09:56:36;;;;;;;31.02;20.75;;;;;;;10.03;100.00;102726.25;10625477;27;20043;-60
2021/10/23 10:01:43;;;;;;;29.80;22.58;;;;;;;9.83;100.00;102726.75;10607205;27;20047;-61
2021/10/23 10:06:47;;;;;;;32.13;25.58;;;;;;;9.96;100.00;102729.06;10625333;27;20049;-60
2021/10/23 10:11:51;;;;;;;37.05;27.25;;;;;;;10.10;100.00;102726.97;10624805;27;20058;-60
2021/10/23 10:16:59;;;;;;;36.45;26.10;;;;;;;10.10;100.00;102719.13;10624968;27;20050;-60
2021/10/23 10:22:10;;;;;;;46.38;27.65;;;;;;;9.92;100.00;102723.06;10625045;27;20050;-59
2021/10/23 10:27:19;;;;;;;38.95;29.63;;;;;;;10.02;100.00;102729.78;10589890;27;20410;-60
2021/10/23 10:32:35;;;;;;;37.28;28.65;;;;;;;10.31;100.00;102725.59;10624762;27;20054;-60
2021/10/23 10:43:08;;;;;;;36.10;27.50;;;;;;;10.76;100.00;102733.16;10624383;28;20395;-60
2021/10/23 10:48:27;;;;;;;36.63;28.65;;;;;;;10.93;100.00;102735.31;10624371;28;20054;-59
2021/10/23 10:53:33;;;;;;;35.22;25.55;;;;;;;11.01;100.00;102736.84;10632757;27;20088;-60
2021/10/23 10:58:44;;;;;;;35.10;28.23;;;;;;;10.95;100.00;102724.78;10632653;27;20054;-60
2021/10/23 11:03:53;;;;;;;33.25;26.90;;;;;;;10.71;100.00;102702.75;10614188;27;20058;-60
2021/10/23 11:09:15;;;;;;;27.90;20.63;;;;;;;11.33;100.00;102700.06;10632243;27;20043;-60
2021/10/23 11:19:41;;;;;;;31.98;18.90;;;;;;;12.03;100.00;102704.00;10632046;27;20121;-60
2021/10/23 11:24:47;;;;;;;30.67;19.90;;;;;;;11.89;100.00;102709.69;10631903;27;20051;-61
2021/10/23 11:30:20;;;;;;;25.23;19.23;;;;;;;12.29;100.00;102719.81;10631423;27;20506;-60
2021/10/23 11:35:44;;;;;;;30.20;20.83;;;;;;;12.49;100.00;102714.75;10630928;27;20043;-60
2021/10/23 11:40:47;;;;;;;28.20;18.45;;;;;;;12.61;100.00;102714.31;10631577;27;20079;-61
2021/10/23 11:45:49;;;;;;;28.60;20.15;;;;;;;11.95;100.00;102703.41;10612949;27;20047;-58
2021/10/23 11:50:54;;;;;;;26.60;18.90;;;;;;;12.36;100.00;102709.06;10630555;27;20051;-60
2021/10/23 11:56:06;;;;;;;31.52;20.35;;;;;;;12.05;100.00;102710.09;10630527;27;20039;-60
2021/10/23 12:01:12;;;;;;;32.95;22.35;;;;;;;12.20;100.00;102700.81;10629629;27;20045;-60
2021/10/23 12:06:17;;;;;;;32.22;22.67;;;;;;;12.34;100.00;102700.38;10629244;27;20047;-59
2021/10/23 12:11:21;;;;;;;30.83;22.60;;;;;;;12.37;100.00;102708.16;10627687;27;20043;-61
2021/10/23 12:16:38;;;;;;;34.00;22.35;;;;;;;12.35;100.00;102711.72;10627421;27;20044;-60
2021/10/23 12:21:55;;;;;;;26.08;20.55;;;;;;;12.36;100.00;102711.66;10628418;27;20039;-61
2021/10/23 12:27:25;;;;;;;26.80;19.70;;;;;;;12.31;100.00;102703.09;10629568;27;20039;-60
2021/10/23 12:32:27;;;;;;;28.98;19.75;;;;;;;12.44;99.60;102701.75;10629191;27;20043;-60
2021/10/23 12:37:44;;;;;;;29.30;21.38;;;;;;;12.49;100.00;102700.72;10628725;27;20479;-59
2021/10/23 12:42:53;;;;;;;34.30;24.92;;;;;;;12.08;99.63;102696.00;10628365;27;20043;-62
2021/10/23 12:47:56;;;;;;;32.15;23.13;;;;;;;12.20;100.00;102689.47;10628341;27;20478;-60
2021/10/23 12:52:59;;;;;;;35.75;23.70;;;;;;;12.61;100.00;102689.81;10627923;27;20375;-60
2021/10/23 12:58:01;;;;;;;34.63;23.95;;;;;;;12.82;100.00;102691.63;10627791;27;20391;-60
2021/10/23 13:03:03;;;;;;;29.75;19.30;;;;;;;12.63;100.00;102682.72;10627702;27;20058;-60
2021/10/23 13:08:06;;;;;;;33.13;18.67;;;;;;;12.68;100.00;102686.03;10627600;27;20050;-60
2021/10/23 13:13:08;;;;;;;27.38;18.33;;;;;;;12.61;97.42;102689.81;10625207;27;20047;-60
2021/10/23 13:18:10;;;;;;;23.83;16.35;;;;;;;12.72;95.67;102674.47;10627139;27;20067;-59
2021/10/23 13:23:13;;;;;;;27.20;16.08;;;;;;;12.74;91.65;102675.31;10627027;27;20059;-58
2021/10/23 13:28:15;;;;;;;23.58;15.57;;;;;;;12.71;93.71;102672.78;10626839;27;20047;-60
2021/10/23 13:33:18;;;;;;;21.38;16.67;;;;;;;13.09;94.28;102672.25;10626358;27;20043;-58
2021/10/23 13:38:20;;;;;;;21.73;15.82;;;;;;;13.51;93.16;102666.28;10626269;27;20063;-59
2021/10/23 13:43:23;;;;;;;21.90;14.95;;;;;;;13.43;93.85;102668.34;10625997;27;20054;-60
2021/10/23 13:48:25;;;;;;;22.90;14.23;;;;;;;13.30;95.69;102667.97;10626069;27;20051;-59
2021/10/23 13:53:28;;;;;;;17.63;13.13;;;;;;;13.20;93.36;102670.94;10625603;27;20474;-58
2021/10/23 13:58:31;;;;;;;15.15;12.38;;;;;;;13.22;93.60;102668.25;10625682;27;20482;-58
2021/10/23 14:03:34;;;;;;;23.60;11.95;;;;;;;12.87;90.85;102677.47;10625497;27;20055;-58
2021/10/23 14:08:38;;;;;;;21.17;13.85;;;;;;;12.93;95.31;102675.47;10625347;27;20054;-60
2021/10/23 14:13:40;;;;;;;17.88;12.48;;;;;;;12.59;91.35;102662.69;10625240;27;20399;-58
2021/10/23 14:18:42;;;;;;;12.93;11.57;;;;;;;13.18;93.69;102667.50;10624646;27;20425;-59
2021/10/23 14:23:46;;;;;;;14.63;10.38;;;;;;;13.38;89.02;102669.41;10624557;27;20054;-60
2021/10/23 14:28:49;;;;;;;15.93;11.25;;;;;;;13.08;89.17;102666.16;10624627;27;20045;-53
2021/10/23 14:33:55;;;;;;;15.80;10.73;;;;;;;12.63;95.53;102665.16;10625281;27;20051;-55
2021/10/23 14:38:59;;;;;;;16.80;10.63;;;;;;;12.95;95.89;102670.16;10624794;27;20051;-58
2021/10/23 14:44:02;;;;;;;13.73;10.30;;;;;;;12.76;88.38;102665.59;10624368;28;20055;-56
2021/10/23 14:49:04;;;;;;;14.77;9.98;;;;;;;12.63;92.04;102669.59;10624086;28;20051;-55
2021/10/23 14:54:07;;;;;;;15.13;10.93;;;;;;;12.42;95.54;102669.44;10624067;28;20043;-54
2021/10/23 14:59:10;;;;;;;13.32;9.57;;;;;;;12.72;96.91;102673.63;10624227;28;20047;-56
2021/10/23 15:04:14;;;;;;;20.73;10.63;;;;;;;12.73;98.46;102672.75;10623743;28;20043;-58
2021/10/23 15:09:16;;;;;;;14.82;9.90;;;;;;;12.69;100.00;102668.50;10623680;28;20486;-57
2021/10/23 15:14:19;;;;;;;19.58;10.48;;;;;;;12.83;99.66;102674.97;10624038;28;20130;-57
2021/10/23 15:19:21;;;;;;;13.80;9.68;;;;;;;12.49;100.00;102674.47;10623463;28;20287;-56
2021/10/23 15:24:23;;;;;;;18.33;10.88;;;;;;;12.13;100.00;102674.84;10623576;28;20051;-56
2021/10/23 15:29:26;;;;;;;15.48;9.75;;;;;;;11.95;100.00;102668.44;10623398;28;20482;-56
2021/10/23 15:34:28;;;;;;;13.10;9.40;;;;;;;11.74;100.00;102680.47;10624078;28;20047;-54
2021/10/23 15:39:33;;;;;;;13.07;9.27;;;;;;;11.74;100.00;102675.22;10629310;27;20057;-56
2021/10/23 15:44:35;;;;;;;16.55;9.48;;;;;;;11.19;100.00;102672.56;10632178;27;20047;-58
2021/10/23 15:49:38;;;;;;;16.08;9.52;;;;;;;11.04;100.00;102666.00;10612684;27;20047;-57
2021/10/23 15:54:41;;;;;;;17.70;11.05;;;;;;;10.84;100.00;102677.91;10630304;27;20439;-59
2021/10/23 15:59:44;;;;;;;20.92;10.55;;;;;;;10.52;100.00;102673.56;10630275;27;20405;-53
2021/10/23 16:04:46;;;;;;;14.00;8.85;;;;;;;10.34;100.00;102678.41;10630354;27;20053;-54
2021/10/23 16:09:49;;;;;;;14.32;9.93;;;;;;;10.15;100.00;102684.97;10630058;27;20051;-57
2021/10/23 16:14:51;;;;;;;16.00;9.40;;;;;;;9.85;100.00;102682.22;10629897;27;20061;-57
2021/10/23 16:19:53;;;;;;;11.40;7.47;;;;;;;9.69;100.00;102686.97;10630091;27;20043;-57
2021/10/23 16:24:56;;;;;;;12.52;6.53;;;;;;;9.46;100.00;102682.25;10629402;27;20491;-58
2021/10/23 16:29:58;;;;;;;15.80;6.80;;;;;;;9.16;100.00;102689.03;10629073;27;20402;-55
2021/10/23 16:35:00;;;;;;;14.65;6.00;;;;;;;8.93;100.00;102688.59;10629077;27;20054;-56
2021/10/23 16:40:06;;;;;;;12.90;5.82;;;;;;;9.15;100.00;102698.63;10628475;27;20047;-55
2021/10/23 16:45:09;;;;;;;11.77;6.65;;;;;;;8.68;100.00;102696.06;10628462;27;20514;-55
2021/10/23 16:50:12;;;;;;;18.95;5.88;;;;;;;8.66;100.00;102686.56;10628218;27;20043;-55
2021/10/23 16:55:14;;;;;;;13.40;6.68;;;;;;;8.54;100.00;102693.72;10627922;27;20043;-56
2021/10/23 17:00:19;;;;;;;9.35;5.38;;;;;;;8.37;100.00;102691.38;10627841;27;20061;-57
2021/10/23 17:05:21;;;;;;;12.52;6.30;;;;;;;8.19;100.00;102696.94;10627827;27;20516;-59
2021/10/23 17:10:23;;;;;;;14.40;6.78;;;;;;;8.05;100.00;102704.09;10627721;27;20088;-54
2021/10/23 17:15:26;;;;;;;14.93;6.47;;;;;;;8.07;100.00;102705.81;10627616;27;20061;-55
2021/10/23 17:20:28;;;;;;;13.18;6.28;;;;;;;7.99;100.00;102707.69;10627343;27;20042;-58
2021/10/23 17:25:31;;;;;;;11.82;6.15;;;;;;;7.87;100.00;102703.53;10626862;27;20054;-59
2021/10/23 17:30:33;;;;;;;15.93;6.75;;;;;;;7.68;100.00;102702.94;10626596;27;20050;-57
2021/10/23 17:35:36;;;;;;;15.40;5.90;;;;;;;7.74;100.00;102707.22;10626389;27;20051;-56
2021/10/23 17:40:40;;;;;;;19.75;8.27;;;;;;;7.53;100.00;102709.25;10607629;27;20058;-58
2021/10/23 17:45:42;;;;;;;11.20;6.82;;;;;;;7.45;100.00;102716.31;10608584;27;20057;-53
2021/10/23 17:50:45;;;;;;;12.68;6.20;;;;;;;7.50;100.00;102721.44;10625952;27;20047;-56
2021/10/23 17:55:47;;;;;;;13.70;6.70;;;;;;;7.26;100.00;102726.09;10625785;27;20069;-57
2021/10/23 18:00:50;;;;;;;18.88;6.30;;;;;;;7.13;100.00;102716.69;10624847;27;20050;-58
2021/10/23 18:05:53;;;;;;;14.55;6.85;;;;;;;7.12;100.00;102726.25;10625415;27;20451;-58
2021/10/23 18:10:55;;;;;;;17.42;7.88;;;;;;;7.09;100.00;102723.69;10625177;27;20047;-56
2021/10/23 18:16:07;;;;;;;19.30;8.95;;;;;;;7.20;100.00;102719.22;10625137;27;20371;-56
2021/10/23 18:21:13;;;;;;;23.02;12.35;;;;;;;7.33;100.00;102734.69;10624494;27;20479;-56
2021/10/23 18:26:15;;;;;;;22.35;14.90;;;;;;;7.44;100.00;102725.84;10624968;27;20044;-55
2021/10/23 18:31:18;;;;;;;30.42;20.45;;;;;;;7.24;100.00;102733.06;10623774;27;20509;-56
2021/10/23 18:36:20;;;;;;;28.27;14.40;;;;;;;7.29;100.00;102733.03;10624924;27;20047;-56
2021/10/23 18:41:22;;;;;;;30.80;13.70;;;;;;;7.20;100.00;102732.25;10624416;27;20059;-55
2021/10/23 18:46:25;;;;;;;24.17;14.20;;;;;;;7.10;100.00;102733.25;10624933;28;20051;-54
2021/10/23 18:51:30;;;;;;;21.40;11.60;;;;;;;7.22;100.00;102733.09;10624317;28;20047;-57
2021/10/23 18:56:32;;;;;;;18.77;11.30;;;;;;;7.23;100.00;102739.19;10623955;28;20058;-57
2021/10/23 19:01:34;;;;;;;17.65;9.18;;;;;;;7.47;100.00;102735.38;10623953;28;20046;-54
2021/10/23 19:06:37;;;;;;;19.52;12.32;;;;;;;7.20;100.00;102734.00;10624800;28;20043;-54
2021/10/23 19:11:40;;;;;;;24.73;14.85;;;;;;;7.02;100.00;102727.25;10608884;27;20047;-53
2021/10/23 19:16:42;;;;;;;15.52;9.38;;;;;;;7.47;100.00;102727.56;10632237;27;20047;-55
2021/10/23 19:21:44;;;;;;;18.65;10.52;;;;;;;7.47;100.00;102721.50;10632553;27;20085;-58
2021/10/23 19:26:48;;;;;;;16.95;11.23;;;;;;;7.27;100.00;102719.16;10631785;27;20494;-55
2021/10/23 19:31:51;;;;;;;20.52;11.95;;;;;;;7.22;100.00;102714.84;10631710;27;20128;-51
2021/10/23 19:36:54;;;;;;;22.05;12.73;;;;;;;7.20;100.00;102714.00;10631278;27;20395;-56
2021/10/23 19:41:56;;;;;;;21.10;10.82;;;;;;;7.22;100.00;102709.63;10631506;27;20047;-55
2021/10/23 19:46:58;;;;;;;22.35;12.45;;;;;;;7.22;100.00;102706.19;10631430;27;20047;-52
2021/10/23 19:52:01;;;;;;;24.90;14.43;;;;;;;7.11;100.00;102708.06;10630908;27;20058;-56
2021/10/23 19:57:03;;;;;;;19.88;12.07;;;;;;;7.25;100.00;102712.22;10630341;27;20047;-56
2021/10/23 20:02:06;;;;;;;18.77;12.10;;;;;;;7.26;100.00;102707.84;10630058;27;20047;-53
2021/10/23 20:07:08;;;;;;;19.95;12.60;;;;;;;7.20;100.00;102708.81;10631029;27;20122;-57
2021/10/23 20:12:11;;;;;;;23.10;12.85;;;;;;;7.22;100.00;102709.63;10612121;27;20122;-58
2021/10/23 20:17:14;;;;;;;21.33;11.27;;;;;;;7.39;100.00;102712.03;10629641;27;20406;-59
2021/10/23 20:22:16;;;;;;;23.20;14.07;;;;;;;7.32;100.00;102706.94;10628847;27;20047;-58
2021/10/23 20:27:19;;;;;;;23.30;13.57;;;;;;;7.34;100.00;102711.22;10629677;27;20518;-56
2021/10/23 20:32:21;;;;;;;22.55;12.95;;;;;;;7.38;100.00;102714.66;10629021;27;20047;-58
2021/10/23 20:37:24;;;;;;;28.38;14.93;;;;;;;7.25;100.00;102714.81;10628924;27;20047;-59
2021/10/23 20:42:26;;;;;;;23.73;14.38;;;;;;;7.22;100.00;102712.25;10628787;27;20494;-58
2021/10/23 20:47:28;;;;;;;26.05;16.00;;;;;;;7.21;100.00;102709.66;10628500;27;20371;-60
2021/10/23 20:52:30;;;;;;;26.85;17.13;;;;;;;7.28;100.00;102715.66;10628326;27;20050;-59
2021/10/23 20:57:33;;;;;;;26.67;16.17;;;;;;;7.24;100.00;102713.09;10628020;27;20133;-59
2021/10/23 21:02:37;;;;;;;28.38;15.63;;;;;;;7.25;100.00;102707.00;10628020;27;20050;-57
2021/10/23 21:07:39;;;;;;;24.30;15.88;;;;;;;7.20;100.00;102711.41;10627640;27;20069;-58
2021/10/23 21:12:41;;;;;;;24.80;15.20;;;;;;;7.25;100.00;102714.81;10628016;27;20097;-58
2021/10/23 21:17:44;;;;;;;28.30;17.55;;;;;;;7.10;100.00;102712.41;10627228;27;20509;-59
2021/10/23 21:22:46;;;;;;;25.67;16.35;;;;;;;7.13;100.00;102714.09;10627207;27;20043;-57
2021/10/23 21:27:48;;;;;;;21.25;14.38;;;;;;;7.09;100.00;102718.50;10626910;27;20061;-58
2021/10/23 21:32:51;;;;;;;29.08;13.60;;;;;;;7.00;100.00;102714.25;10626585;27;20043;-57
2021/10/23 21:37:53;;;;;;;18.90;12.30;;;;;;;7.05;100.00;102724.63;10625205;27;20525;-57
2021/10/23 21:42:56;;;;;;;21.35;14.13;;;;;;;6.99;100.00;102727.28;10626203;27;20513;-57
2021/10/23 21:47:58;;;;;;;21.00;13.48;;;;;;;7.03;100.00;102729.00;10626258;27;20047;-57
2021/10/23 21:53:00;;;;;;;22.58;12.82;;;;;;;6.96;100.00;102727.31;10626007;27;20056;-58
2021/10/23 21:58:03;;;;;;;23.80;13.20;;;;;;;6.93;100.00;102722.19;10626290;27;20058;-59
2021/10/23 22:03:07;;;;;;;22.02;12.70;;;;;;;6.86;100.00;102726.59;10625853;27;20167;-55
2021/10/23 22:08:10;;;;;;;23.05;13.88;;;;;;;6.79;100.00;102720.59;10625265;27;20479;-59
2021/10/23 22:13:12;;;;;;;19.58;12.85;;;;;;;6.68;100.00;102717.22;10625344;27;20050;-60
2021/10/23 22:18:15;;;;;;;20.50;12.15;;;;;;;6.77;100.00;102716.25;10624901;27;20088;-56
2021/10/23 22:23:18;;;;;;;16.92;12.38;;;;;;;6.72;100.00;102718.03;10625486;27;20043;-57
2021/10/23 22:28:24;;;;;;;16.95;11.68;;;;;;;6.71;100.00;102701.56;10624761;27;20051;-57
2021/10/23 22:33:26;;;;;;;17.38;11.77;;;;;;;6.62;100.00;102702.53;10624902;27;20043;-56
2021/10/23 22:38:28;;;;;;;14.98;10.77;;;;;;;6.63;100.00;102703.41;10624391;27;20047;-58
2021/10/23 22:43:31;;;;;;;26.15;11.32;;;;;;;6.70;100.00;102698.09;10624201;27;20539;-56
2021/10/23 22:48:34;;;;;;;17.25;10.60;;;;;;;6.55;100.00;102694.78;10636170;27;20053;-58
2021/10/23 22:53:36;;;;;;;15.68;11.18;;;;;;;6.60;100.00;102699.06;10638212;27;20054;-57
2021/10/23 22:58:39;;;;;;;19.75;11.73;;;;;;;6.51;100.00;102692.22;10638511;27;20050;-56